Waterloo Regional Airport
KALO : now visible

Airfield :











YOU CAN JOIN US ON...

 
LOGIN :

Register | Disclaimer

   EN    FR    IT 

 









Legend :    VFR   Marginal VFR   IFR   Intensive IFR   Very Intensive IFR
Visi :
Ceiling :
>= 8 km
>= 3000ft
5 to 8 km
1000 to 3000 ft
1500m to 5 km
500 to 1000 ft
800 to 1500m
200 to 500 ft
< 800m
< 200 ft
Symbols :   Thunderstorms  Fog  Heavy snow  Heavy precipitations  Wind > 20 kt






- Airport Elevation : 873 ft
- IATA code : ALO


KALO - Waterloo Regional

CURRENT METAR :
  • 290054Z AUTO 29006KT 10SM FEW075 SCT100 10/06 A2991 RMK AO2 SLP132 T01000061

EXPIRED METARs :
  • 282354Z AUTO 30010KT 10SM FEW048 OVC070 11/06 A2990 RMK AO2 SLP127 60000 T01110056 10161 20106 53015
  • 282254Z 29007KT 10SM FEW055 BKN075 OVC095 12/08 A2988 RMK AO2 SLP119 T01220078

TAF KALO
Valid from the 29 at 00:00 until the 30 at 00:00 UTC


282334Z 2900/2924 32008KT P6SM VCSH FEW035 SCT050 OVC080
FM290400 31009KT P6SM SCT060 BKN090
FM291600 26010G16KT P6SM VCSH SCT050 BKN100
FM292200 VRB06KT P6SM SCT150
KZAU FIR / North America



MET'MAP, your aeronautical weather chart ! - Copyright ORBIFLY December 2007 - Disclaimer

ORBIFLY MET'MAP TEAM :

Programming & Development : Alexandra Zaïnal
Concept & original design : Baudouin d'Aumeries
Assistance for programming : Marc-Olivier Méhu
Technical & hardware support : Manuel Goepfert

Contact : metmap@orbifly.com




SOURCES & CREDITS :

   NOAA       Earth
Advisory